Terminal Aerodrome Forecast
Issued by NWS Jacksonville, FL

Home | Current Version | Previous Version | Text Only | Print | Product List | Glossary On
Versions: 1 2 3 4 5 6 7 8 9 10 11 12 13 14 15 16 17 18 19 20 21 22 23 24 25 26 27 28 29 30 31 32 33 34 35 36 37 38 39
000
FTUS42 KJAX 022323
TAFSSI
TAF
KSSI 022323Z 0300/0324 VRB06KT P6SM VCTS SCT025CB BKN050
      TEMPO 0300/0302 VRB20G30KT 1SM TSRA BKN018 OVC025CB
     FM030500 21003KT P6SM VCSH SCT040 BKN100 BKN250
     FM030800 25004KT 4SM BR VCSH SCT007 OVC020
     FM031300 28005KT P6SM VCSH SCT040 BKN250
     FM031500 32006KT P6SM VCTS BKN040CB BKN250=

USA.gov is the U.S. government's official web portal to all federal, state and local government web resources and services.